createdAt,value
2018-11-22T12:16:05.221Z,30.87
2018-11-22T12:18:36.998Z,32.90
2018-11-22T12:21:02.538Z,32.93
2018-11-22T12:23:30.768Z,30.27
2018-11-22T12:25:58.975Z,31.07
2018-11-22T12:28:27.245Z,32.30
2018-11-22T12:30:55.502Z,33.90
2018-11-22T12:33:41.070Z,31.40
2018-11-22T12:36:14.759Z,34.20
2018-11-22T12:38:43.677Z,33.03
2018-11-22T12:41:11.920Z,31.37
2018-11-22T12:43:40.172Z,31.93
2018-11-22T12:46:08.411Z,32.63
2018-11-22T12:48:36.705Z,30.10
2018-11-22T12:51:05.081Z,30.70
2018-11-22T12:53:33.307Z,30.57
2018-11-22T12:56:01.564Z,30.53
2018-11-22T12:58:30.065Z,29.57
2018-11-22T13:00:59.192Z,32.50
2018-11-22T13:03:27.571Z,30.43
2018-11-22T13:05:55.805Z,31.03
2018-11-22T13:08:24.085Z,31.37
2018-11-22T13:10:52.316Z,31.40
2018-11-22T13:13:20.580Z,30.83
2018-11-22T13:15:48.817Z,30.53
2018-11-22T13:18:17.125Z,32.40
2018-11-22T13:20:45.541Z,33.57
2018-11-22T13:23:13.778Z,32.10
2018-11-22T13:25:42.005Z,31.20
2018-11-22T13:28:10.285Z,31.37
2018-11-22T13:30:38.511Z,32.77
2018-11-22T13:33:06.807Z,34.17
2018-11-22T13:35:35.020Z,33.20
2018-11-22T13:38:03.322Z,30.60
2018-11-22T13:40:31.561Z,30.97
2018-11-22T13:42:59.810Z,31.33
2018-11-22T13:45:29.087Z,32.37
2018-11-22T13:47:57.843Z,32.47
2018-11-22T13:50:28.507Z,31.00
2018-11-22T13:53:00.370Z,31.33
2018-11-22T13:55:28.664Z,30.17
2018-11-22T13:58:03.505Z,30.97
2018-11-22T14:00:32.961Z,32.53
2018-11-22T14:03:02.792Z,31.83
2018-11-22T14:05:31.034Z,32.17
2018-11-22T14:07:59.260Z,32.07
2018-11-22T14:10:27.501Z,34.60
2018-11-22T14:12:55.721Z,32.97
2018-11-22T14:15:26.188Z,32.43
2018-11-22T14:17:56.009Z,34.70
2018-11-22T14:20:25.825Z,33.80
2018-11-22T14:22:54.054Z,31.90
2018-11-22T14:25:22.374Z,31.60
2018-11-22T14:27:51.040Z,32.47
2018-11-22T14:30:20.534Z,30.67
2018-11-22T14:32:49.772Z,33.83
2018-11-22T14:35:18.965Z,31.97
2018-11-22T14:37:47.206Z,32.80
2018-11-22T14:40:18.006Z,32.13
2018-11-22T14:42:46.969Z,33.13
2018-11-22T14:45:15.760Z,34.20
2018-11-22T14:47:45.154Z,34.90
2018-11-22T14:50:18.006Z,33.33
2018-11-22T14:52:48.544Z,32.07
2018-11-22T14:55:16.785Z,30.93
2018-11-22T14:57:45.030Z,33.03
2018-11-22T15:00:14.569Z,33.23
2018-11-22T15:02:44.120Z,31.93
2018-11-22T15:05:12.876Z,33.17
2018-11-22T15:07:41.918Z,32.23
2018-11-22T15:10:11.605Z,34.63
2018-11-22T15:12:40.611Z,34.57
2018-11-22T15:15:11.334Z,32.50
2018-11-22T15:17:40.035Z,31.53
2018-11-22T15:20:10.033Z,33.77
2018-11-22T15:22:38.817Z,32.37
2018-11-22T15:25:08.360Z,33.90
2018-11-22T15:27:36.577Z,32.10
2018-11-22T15:30:07.009Z,32.13
2018-11-22T15:32:35.519Z,32.70
2018-11-22T15:35:03.967Z,32.20
2018-11-22T15:37:32.196Z,32.07
2018-11-22T15:40:00.476Z,30.97
2018-11-22T15:42:28.705Z,34.73
2018-11-22T15:44:56.971Z,31.90
2018-11-22T15:47:25.222Z,30.23
2018-11-22T15:49:53.709Z,32.77
2018-11-22T15:52:21.947Z,32.93
2018-11-22T15:54:50.222Z,31.23
2018-11-22T15:57:18.476Z,31.30
2018-11-22T15:59:46.761Z,31.40
2018-11-22T16:02:15.347Z,30.97
2018-11-22T16:04:43.583Z,32.30
2018-11-22T16:07:11.831Z,29.90
2018-11-22T16:09:40.217Z,31.43
2018-11-22T16:12:08.493Z,29.50
2018-11-22T16:14:36.829Z,30.77
2018-11-22T16:17:05.432Z,30.83
2018-11-22T16:19:33.901Z,30.13
2018-11-22T16:22:02.477Z,31.67
2018-11-22T16:24:31.322Z,31.30
2018-11-22T16:26:59.589Z,28.80
2018-11-22T16:29:27.836Z,29.90
2018-11-22T16:31:56.165Z,28.60
2018-11-22T16:34:24.526Z,31.07
2018-11-22T16:36:52.763Z,31.93
2018-11-22T16:39:21.062Z,30.30
2018-11-22T16:41:54.378Z,30.50
2018-11-22T16:44:22.708Z,33.50
2018-11-22T16:46:50.939Z,32.40
2018-11-22T16:49:19.209Z,30.50
2018-11-22T16:54:25.305Z,30.03
2018-11-22T16:56:53.580Z,32.90
2018-11-22T16:59:21.986Z,30.53
2018-11-22T17:01:50.261Z,32.17
2018-11-22T17:04:18.540Z,30.33
2018-11-22T17:06:46.818Z,29.70
2018-11-22T17:09:15.341Z,30.83
2018-11-22T17:11:43.841Z,31.17
2018-11-22T17:14:12.117Z,29.73
2018-11-22T17:16:40.384Z,29.77
2018-11-22T17:19:08.688Z,29.50
2018-11-22T17:21:36.933Z,31.80
2018-11-22T17:24:06.061Z,29.77
2018-11-22T17:26:34.361Z,32.10
2018-11-22T17:29:02.620Z,31.43
2018-11-22T17:31:31.312Z,29.50
2018-11-22T17:33:59.554Z,29.10
2018-11-22T17:36:27.841Z,31.43
2018-11-22T17:38:56.092Z,29.33
2018-11-22T17:41:24.480Z,29.40
2018-11-22T17:43:53.149Z,29.80
2018-11-22T17:46:21.461Z,30.13
2018-11-22T17:48:49.690Z,28.07
2018-11-22T17:51:17.991Z,30.50
2018-11-22T17:53:46.293Z,29.60
2018-11-22T17:56:15.197Z,28.40
2018-11-22T17:58:43.430Z,29.13
2018-11-22T18:01:14.640Z,29.83
2018-11-22T18:03:39.905Z,28.60
2018-11-22T18:06:08.193Z,29.17
2018-11-22T18:08:37.368Z,30.07
2018-11-22T18:11:05.984Z,29.00
2018-11-22T18:13:34.333Z,27.23
2018-11-22T18:16:02.585Z,29.53
2018-11-22T18:18:30.845Z,27.90
2018-11-22T18:20:59.151Z,28.70
2018-11-22T18:23:27.578Z,28.50
2018-11-22T18:25:56.135Z,28.00
2018-11-22T18:28:24.519Z,26.80
2018-11-22T18:30:52.763Z,30.50
2018-11-22T18:33:21.330Z,28.93
2018-11-22T18:35:49.562Z,28.40
2018-11-22T18:38:17.817Z,30.23
2018-11-22T18:40:46.185Z,30.83
2018-11-22T18:43:14.451Z,29.10
2018-11-22T18:45:45.018Z,29.87
2018-11-22T18:48:14.618Z,29.27
2018-11-22T18:50:43.302Z,28.67
2018-11-22T18:53:11.697Z,29.30
2018-11-22T18:55:39.969Z,26.73
2018-11-22T18:58:08.341Z,28.67
2018-11-22T19:00:38.139Z,28.30
2018-11-22T19:03:13.992Z,28.13
2018-11-22T19:05:42.284Z,27.37
2018-11-22T19:08:10.513Z,27.80
2018-11-22T19:10:39.988Z,29.33
2018-11-22T19:13:09.153Z,26.60
2018-11-22T19:15:38.849Z,28.70
2018-11-22T19:18:07.928Z,28.00
2018-11-22T19:20:37.667Z,28.20
2018-11-22T19:23:06.866Z,26.07
2018-11-22T19:25:35.090Z,27.77
2018-11-22T19:28:03.953Z,26.50
2018-11-22T19:30:37.253Z,26.63
2018-11-22T19:33:03.360Z,24.97
2018-11-22T19:35:33.161Z,27.40
2018-11-22T19:38:01.434Z,24.37
2018-11-22T19:40:31.906Z,27.27
2018-11-22T19:43:01.460Z,25.07
2018-11-22T19:45:31.065Z,25.23
2018-11-22T19:47:59.369Z,24.67
2018-11-22T19:50:28.374Z,24.87
2018-11-22T19:52:57.440Z,24.50
2018-11-22T19:55:27.058Z,24.30
2018-11-22T20:11:58.462Z,26.40
2018-11-22T20:14:26.703Z,25.47
2018-11-22T20:16:55.029Z,23.20
2018-11-22T20:19:23.313Z,26.20
2018-11-22T20:21:51.949Z,25.47
2018-11-22T20:24:20.259Z,24.77
2018-11-22T20:26:48.946Z,24.00
2018-11-22T20:29:17.187Z,24.77
2018-11-22T20:31:45.573Z,24.50
2018-11-22T20:34:13.842Z,23.90
2018-11-22T20:36:42.217Z,24.80
2018-11-22T20:39:11.818Z,24.90
2018-11-22T20:41:40.547Z,22.47
2018-11-22T20:44:09.162Z,23.37
2018-11-22T20:46:37.705Z,24.50
2018-11-22T20:49:06.361Z,23.00
2018-11-22T20:51:34.757Z,24.23
2018-11-22T20:54:02.999Z,22.97
2018-11-22T20:56:31.234Z,23.27
2018-11-22T20:58:59.552Z,22.63
2018-11-22T21:01:27.832Z,21.40
2018-11-22T21:03:56.280Z,24.63
2018-11-22T21:06:24.558Z,22.40
2018-11-22T21:08:52.836Z,23.00
2018-11-22T21:11:21.073Z,20.37
2018-11-22T21:13:49.313Z,20.07
2018-11-22T21:16:17.562Z,21.43
2018-11-22T21:18:45.788Z,19.40
2018-11-22T21:21:14.081Z,21.93
2018-11-22T21:23:42.348Z,21.33
2018-11-22T21:26:14.550Z,19.90
2018-11-22T21:28:38.851Z,20.83
2018-11-22T21:31:07.124Z,20.00
2018-11-22T21:33:35.374Z,20.50
2018-11-22T21:36:03.633Z,21.10
2018-11-22T21:38:31.888Z,22.00
2018-11-22T21:41:00.137Z,21.50
2018-11-22T21:43:28.496Z,19.40
2018-11-22T21:45:56.728Z,22.17
2018-11-22T21:48:24.997Z,21.93
2018-11-22T21:50:53.277Z,19.03
2018-11-22T21:53:21.590Z,23.07
2018-11-22T21:55:49.834Z,20.40
2018-11-22T21:58:18.041Z,20.17
2018-11-22T22:00:46.823Z,20.83
2018-11-22T22:03:15.077Z,19.63
2018-11-22T22:05:43.356Z,19.30
2018-11-22T22:08:11.613Z,18.70
2018-11-22T22:10:39.831Z,20.23
2018-11-22T22:13:08.169Z,18.53
2018-11-22T22:15:37.177Z,19.00
2018-11-22T22:18:06.440Z,19.53
2018-11-22T22:20:35.625Z,19.27
2018-11-22T22:23:03.910Z,19.07
2018-11-22T22:25:32.310Z,18.33
2018-11-22T22:28:00.888Z,20.03
2018-11-22T22:30:31.417Z,19.80
2018-11-22T22:33:01.123Z,18.17
2018-11-22T22:35:29.352Z,19.40
2018-11-22T22:37:57.575Z,19.73
2018-11-22T22:40:27.157Z,19.37
2018-11-22T22:42:56.320Z,18.90
2018-11-22T22:45:25.560Z,18.20
2018-11-22T22:47:54.025Z,19.37
2018-11-22T22:50:23.517Z,18.17
2018-11-22T22:52:52.985Z,19.23
2018-11-22T22:55:21.243Z,19.70
2018-11-22T22:57:49.468Z,20.37
2018-11-22T23:00:23.965Z,20.47
2018-11-22T23:02:54.469Z,19.67
2018-11-22T23:05:24.487Z,18.97
2018-11-22T23:07:52.741Z,19.73
2018-11-22T23:10:21.405Z,19.57
2018-11-22T23:12:49.670Z,19.50
2018-11-22T23:15:18.508Z,18.40
2018-11-22T23:17:46.734Z,18.57
2018-11-22T23:20:17.242Z,17.80
2018-11-22T23:22:45.900Z,19.47
2018-11-22T23:25:14.736Z,19.03
2018-11-22T23:27:42.969Z,19.53
2018-11-22T23:30:15.578Z,18.37
2018-11-22T23:32:45.302Z,18.90
2018-11-22T23:35:13.547Z,17.97
2018-11-22T23:37:42.009Z,20.03
2018-11-22T23:40:12.205Z,19.10
2018-11-22T23:42:40.602Z,19.63
2018-11-22T23:45:10.061Z,18.37
2018-11-22T23:47:38.899Z,19.33
2018-11-22T23:50:08.989Z,19.17
2018-11-22T23:52:37.244Z,18.90
2018-11-22T23:55:05.965Z,17.97
2018-11-22T23:57:34.201Z,17.43
